首页
METAR-TAF:

METAR-TAF

机场 :

Greeley-Weld County Airport

格里利, 科羅拉多州, 美国

纬度: 40-26N, 经度: 104-38W, 海拔: 1420米

当前天气观测

该预报发布于39分钟前的18:56 UTC
风速13节,风向北转东北
温度 -4°C
湿度 74%
气压 1026 hPa
能見度: 14.5公里
阴天层高于1600英尺
小雪

METAR: KGXY 191856Z AUTO 03013KT 9SM -SN OVC016 M04/M08 A3031 RMK AO2 SLP318 P0000 T10441078 FZRANO

时间: 12:35 (19:35 UTC)


TAF: 丢失

超过4000个机场的气象观测和天气预报(METAR&TAF报告)。

可查询的气象台以黄色和红色小点在地图上表示。

将鼠标移到小点上方,可查看气象台名称。

然后点击查看天气观测和预报。

如需切换地图:点击带黑十字的绿色按钮放大地图;点击带横线的绿色按钮缩小地图;或者点击绿色箭头查看邻近地区的地图。


METAR-TAF: